sensor_id;sensor_type;location;lat;lon;timestamp;temperature;humidity
71237;DHT22;58984;51.960;5.582;2023-11-21T00:01:36;16.00;62.40
71237;DHT22;58984;51.960;5.582;2023-11-21T00:04:02;16.00;62.40
71237;DHT22;58984;51.960;5.582;2023-11-21T00:06:28;16.00;62.50
71237;DHT22;58984;51.960;5.582;2023-11-21T00:08:55;16.00;62.50
71237;DHT22;58984;51.960;5.582;2023-11-21T00:11:21;16.00;62.50
71237;DHT22;58984;51.960;5.582;2023-11-21T00:13:46;15.90;62.40
71237;DHT22;58984;51.960;5.582;2023-11-21T00:16:13;15.90;62.40
71237;DHT22;58984;51.960;5.582;2023-11-21T00:18:38;15.90;62.20
71237;DHT22;58984;51.960;5.582;2023-11-21T00:21:05;15.90;62.20
71237;DHT22;58984;51.960;5.582;2023-11-21T00:23:30;15.90;62.20
71237;DHT22;58984;51.960;5.582;2023-11-21T00:25:56;15.90;62.20
71237;DHT22;58984;51.960;5.582;2023-11-21T00:28:22;15.90;62.20
71237;DHT22;58984;51.960;5.582;2023-11-21T00:30:47;15.80;62.10
71237;DHT22;58984;51.960;5.582;2023-11-21T00:33:13;15.80;62.10
71237;DHT22;58984;51.960;5.582;2023-11-21T00:35:39;15.80;62.10
71237;DHT22;58984;51.960;5.582;2023-11-21T00:38:04;15.90;62.20
71237;DHT22;58984;51.960;5.582;2023-11-21T00:40:30;15.80;62.10
71237;DHT22;58984;51.960;5.582;2023-11-21T00:42:56;15.80;62.10
71237;DHT22;58984;51.960;5.582;2023-11-21T00:45:21;15.80;62.10
71237;DHT22;58984;51.960;5.582;2023-11-21T00:47:47;15.80;62.10
71237;DHT22;58984;51.960;5.582;2023-11-21T00:50:13;15.80;62.10
71237;DHT22;58984;51.960;5.582;2023-11-21T00:52:38;15.80;62.20
71237;DHT22;58984;51.960;5.582;2023-11-21T00:55:05;15.70;62.10
71237;DHT22;58984;51.960;5.582;2023-11-21T00:57:33;15.70;62.10
71237;DHT22;58984;51.960;5.582;2023-11-21T00:59:58;15.70;62.20
71237;DHT22;58984;51.960;5.582;2023-11-21T01:02:24;15.80;63.20
71237;DHT22;58984;51.960;5.582;2023-11-21T01:04:50;15.70;62.20
71237;DHT22;58984;51.960;5.582;2023-11-21T01:07:16;15.70;62.20
71237;DHT22;58984;51.960;5.582;2023-11-21T01:09:41;15.70;62.30
71237;DHT22;58984;51.960;5.582;2023-11-21T01:12:09;15.70;62.30
71237;DHT22;58984;51.960;5.582;2023-11-21T01:14:35;15.70;62.40
71237;DHT22;58984;51.960;5.582;2023-11-21T01:17:02;15.70;62.40
71237;DHT22;58984;51.960;5.582;2023-11-21T01:19:29;15.70;62.30
71237;DHT22;58984;51.960;5.582;2023-11-21T01:21:55;15.70;62.40
71237;DHT22;58984;51.960;5.582;2023-11-21T01:24:21;15.70;62.40
71237;DHT22;58984;51.960;5.582;2023-11-21T01:26:46;15.70;62.40
71237;DHT22;58984;51.960;5.582;2023-11-21T01:29:13;15.70;62.40
71237;DHT22;58984;51.960;5.582;2023-11-21T01:31:39;15.70;62.40
71237;DHT22;58984;51.960;5.582;2023-11-21T01:34:04;15.60;62.30
71237;DHT22;58984;51.960;5.582;2023-11-21T01:36:33;15.70;62.40
71237;DHT22;58984;51.960;5.582;2023-11-21T01:38:59;15.60;62.30
71237;DHT22;58984;51.960;5.582;2023-11-21T01:41:28;15.70;62.30
71237;DHT22;58984;51.960;5.582;2023-11-21T01:43:55;15.60;62.20
71237;DHT22;58984;51.960;5.582;2023-11-21T01:46:21;15.60;63.10
71237;DHT22;58984;51.960;5.582;2023-11-21T01:48:48;15.60;62.40
71237;DHT22;58984;51.960;5.582;2023-11-21T01:51:13;15.60;62.30
71237;DHT22;58984;51.960;5.582;2023-11-21T01:53:40;15.60;62.30
71237;DHT22;58984;51.960;5.582;2023-11-21T01:56:07;15.60;63.20
71237;DHT22;58984;51.960;5.582;2023-11-21T01:58:34;15.60;62.30
71237;DHT22;58984;51.960;5.582;2023-11-21T02:00:59;15.60;62.30
71237;DHT22;58984;51.960;5.582;2023-11-21T02:03:25;15.60;62.30
71237;DHT22;58984;51.960;5.582;2023-11-21T02:05:52;15.60;62.40
71237;DHT22;58984;51.960;5.582;2023-11-21T02:08:19;15.50;62.30
71237;DHT22;58984;51.960;5.582;2023-11-21T02:10:45;15.50;62.40
71237;DHT22;58984;51.960;5.582;2023-11-21T02:13:11;15.50;62.40
71237;DHT22;58984;51.960;5.582;2023-11-21T02:15:37;15.50;62.30
71237;DHT22;58984;51.960;5.582;2023-11-21T02:18:04;15.50;62.40
71237;DHT22;58984;51.960;5.582;2023-11-21T02:20:32;15.50;62.40
71237;DHT22;58984;51.960;5.582;2023-11-21T02:23:00;15.50;62.40
71237;DHT22;58984;51.960;5.582;2023-11-21T02:25:31;15.50;62.30
71237;DHT22;58984;51.960;5.582;2023-11-21T02:28:02;15.50;62.40
71237;DHT22;58984;51.960;5.582;2023-11-21T02:30:28;15.50;62.30
71237;DHT22;58984;51.960;5.582;2023-11-21T02:32:54;15.40;62.10
71237;DHT22;58984;51.960;5.582;2023-11-21T02:35:20;15.40;62.20
71237;DHT22;58984;51.960;5.582;2023-11-21T02:37:47;15.50;62.20
71237;DHT22;58984;51.960;5.582;2023-11-21T02:40:12;15.50;62.20
71237;DHT22;58984;51.960;5.582;2023-11-21T02:42:39;15.40;62.20
71237;DHT22;58984;51.960;5.582;2023-11-21T02:45:07;15.40;63.10
71237;DHT22;58984;51.960;5.582;2023-11-21T02:47:33;15.40;62.20
71237;DHT22;58984;51.960;5.582;2023-11-21T02:49:59;15.40;62.20
71237;DHT22;58984;51.960;5.582;2023-11-21T02:52:24;15.40;62.20
71237;DHT22;58984;51.960;5.582;2023-11-21T02:54:50;15.40;62.20
71237;DHT22;58984;51.960;5.582;2023-11-21T02:57:16;15.40;62.20
71237;DHT22;58984;51.960;5.582;2023-11-21T02:59:42;15.30;62.10
71237;DHT22;58984;51.960;5.582;2023-11-21T03:02:08;15.40;62.30
71237;DHT22;58984;51.960;5.582;2023-11-21T03:04:34;15.40;62.40
71237;DHT22;58984;51.960;5.582;2023-11-21T03:07:00;15.40;62.40
71237;DHT22;58984;51.960;5.582;2023-11-21T03:09:26;15.40;62.40
71237;DHT22;58984;51.960;5.582;2023-11-21T03:11:52;15.40;62.40
71237;DHT22;58984;51.960;5.582;2023-11-21T03:14:18;15.40;62.40
71237;DHT22;58984;51.960;5.582;2023-11-21T03:16:44;15.30;62.40
71237;DHT22;58984;51.960;5.582;2023-11-21T03:19:11;15.40;62.40
71237;DHT22;58984;51.960;5.582;2023-11-21T03:21:36;15.30;62.30
71237;DHT22;58984;51.960;5.582;2023-11-21T03:24:02;15.30;62.40
71237;DHT22;58984;51.960;5.582;2023-11-21T03:26:28;15.30;62.40
71237;DHT22;58984;51.960;5.582;2023-11-21T03:28:55;15.30;62.40
71237;DHT22;58984;51.960;5.582;2023-11-21T03:31:21;15.40;62.50
71237;DHT22;58984;51.960;5.582;2023-11-21T03:33:46;15.30;62.40
71237;DHT22;58984;51.960;5.582;2023-11-21T03:36:13;15.30;62.50
71237;DHT22;58984;51.960;5.582;2023-11-21T03:38:40;15.30;62.50
71237;DHT22;58984;51.960;5.582;2023-11-21T03:41:06;15.30;62.50
71237;DHT22;58984;51.960;5.582;2023-11-21T03:43:32;15.30;62.60
71237;DHT22;58984;51.960;5.582;2023-11-21T03:45:57;15.30;62.50
71237;DHT22;58984;51.960;5.582;2023-11-21T03:48:23;15.30;63.30
71237;DHT22;58984;51.960;5.582;2023-11-21T03:50:48;15.20;62.50
71237;DHT22;58984;51.960;5.582;2023-11-21T03:53:14;15.20;62.50
71237;DHT22;58984;51.960;5.582;2023-11-21T03:55:40;15.30;62.70
71237;DHT22;58984;51.960;5.582;2023-11-21T03:58:05;15.30;62.60
71237;DHT22;58984;51.960;5.582;2023-11-21T04:00:31;15.30;62.60
71237;DHT22;58984;51.960;5.582;2023-11-21T04:02:56;15.30;62.60
71237;DHT22;58984;51.960;5.582;2023-11-21T04:05:23;15.30;62.70
71237;DHT22;58984;51.960;5.582;2023-11-21T04:07:49;15.20;62.60
71237;DHT22;58984;51.960;5.582;2023-11-21T04:10:16;15.20;62.60
71237;DHT22;58984;51.960;5.582;2023-11-21T04:12:41;15.20;62.60
71237;DHT22;58984;51.960;5.582;2023-11-21T04:15:08;15.30;62.80
71237;DHT22;58984;51.960;5.582;2023-11-21T04:17:36;15.20;62.70
71237;DHT22;58984;51.960;5.582;2023-11-21T04:20:03;15.30;62.80
71237;DHT22;58984;51.960;5.582;2023-11-21T04:22:33;15.20;62.70
71237;DHT22;58984;51.960;5.582;2023-11-21T04:24:59;15.20;62.80
71237;DHT22;58984;51.960;5.582;2023-11-21T04:27:25;15.30;62.90
71237;DHT22;58984;51.960;5.582;2023-11-21T04:29:50;15.20;62.80
71237;DHT22;58984;51.960;5.582;2023-11-21T04:32:16;15.30;62.90
71237;DHT22;58984;51.960;5.582;2023-11-21T04:34:41;15.20;62.70
71237;DHT22;58984;51.960;5.582;2023-11-21T04:37:07;15.20;62.80
71237;DHT22;58984;51.960;5.582;2023-11-21T04:39:32;15.30;62.90
71237;DHT22;58984;51.960;5.582;2023-11-21T04:41:58;15.20;62.80
71237;DHT22;58984;51.960;5.582;2023-11-21T04:44:24;15.20;62.90
71237;DHT22;58984;51.960;5.582;2023-11-21T04:46:49;15.20;62.90
71237;DHT22;58984;51.960;5.582;2023-11-21T04:49:15;15.20;62.80
71237;DHT22;58984;51.960;5.582;2023-11-21T04:51:40;15.20;62.90
71237;DHT22;58984;51.960;5.582;2023-11-21T04:54:06;15.20;62.90
71237;DHT22;58984;51.960;5.582;2023-11-21T04:56:31;15.20;62.90
71237;DHT22;58984;51.960;5.582;2023-11-21T04:58:57;15.20;63.00
71237;DHT22;58984;51.960;5.582;2023-11-21T05:01:23;15.20;63.00
71237;DHT22;58984;51.960;5.582;2023-11-21T05:03:49;15.20;63.10
71237;DHT22;58984;51.960;5.582;2023-11-21T05:06:14;15.20;63.10
71237;DHT22;58984;51.960;5.582;2023-11-21T05:08:40;15.20;63.00
71237;DHT22;58984;51.960;5.582;2023-11-21T05:11:06;15.20;63.10
71237;DHT22;58984;51.960;5.582;2023-11-21T05:13:36;15.20;63.10
71237;DHT22;58984;51.960;5.582;2023-11-21T05:16:03;15.20;63.00
71237;DHT22;58984;51.960;5.582;2023-11-21T05:18:32;15.20;63.10
71237;DHT22;58984;51.960;5.582;2023-11-21T05:20:58;15.20;63.10
71237;DHT22;58984;51.960;5.582;2023-11-21T05:23:24;15.20;63.10
71237;DHT22;58984;51.960;5.582;2023-11-21T05:25:50;15.20;63.20
71237;DHT22;58984;51.960;5.582;2023-11-21T05:28:15;15.20;63.10
71237;DHT22;58984;51.960;5.582;2023-11-21T05:30:41;15.20;63.20
71237;DHT22;58984;51.960;5.582;2023-11-21T05:33:06;15.20;63.20
71237;DHT22;58984;51.960;5.582;2023-11-21T05:35:32;15.20;63.30
71237;DHT22;58984;51.960;5.582;2023-11-21T05:37:58;15.20;63.20
71237;DHT22;58984;51.960;5.582;2023-11-21T05:40:23;15.20;63.20
71237;DHT22;58984;51.960;5.582;2023-11-21T05:42:51;15.20;63.20
71237;DHT22;58984;51.960;5.582;2023-11-21T05:45:17;15.20;63.30
71237;DHT22;58984;51.960;5.582;2023-11-21T05:47:45;15.20;64.10
71237;DHT22;58984;51.960;5.582;2023-11-21T05:50:12;15.10;63.20
71237;DHT22;58984;51.960;5.582;2023-11-21T05:52:40;15.20;63.30
71237;DHT22;58984;51.960;5.582;2023-11-21T05:55:07;15.20;63.30
71237;DHT22;58984;51.960;5.582;2023-11-21T05:57:37;15.20;63.30
71237;DHT22;58984;51.960;5.582;2023-11-21T06:00:08;15.10;63.20
71237;DHT22;58984;51.960;5.582;2023-11-21T06:02:40;15.10;63.30
71237;DHT22;58984;51.960;5.582;2023-11-21T06:05:07;15.20;63.40
71237;DHT22;58984;51.960;5.582;2023-11-21T06:07:34;15.10;63.30
71237;DHT22;58984;51.960;5.582;2023-11-21T06:10:07;15.10;63.40
71237;DHT22;58984;51.960;5.582;2023-11-21T06:12:37;15.10;63.30
71237;DHT22;58984;51.960;5.582;2023-11-21T06:15:06;15.20;63.50
71237;DHT22;58984;51.960;5.582;2023-11-21T06:17:34;15.20;63.50
71237;DHT22;58984;51.960;5.582;2023-11-21T06:20:04;15.20;63.40
71237;DHT22;58984;51.960;5.582;2023-11-21T06:22:38;15.20;63.50
71237;DHT22;58984;51.960;5.582;2023-11-21T06:25:04;15.20;63.50
71237;DHT22;58984;51.960;5.582;2023-11-21T06:27:36;15.20;63.60
71237;DHT22;58984;51.960;5.582;2023-11-21T06:30:02;15.10;63.50
71237;DHT22;58984;51.960;5.582;2023-11-21T06:32:27;15.10;63.40
71237;DHT22;58984;51.960;5.582;2023-11-21T06:34:58;15.10;63.50
71237;DHT22;58984;51.960;5.582;2023-11-21T06:37:27;15.10;63.50
71237;DHT22;58984;51.960;5.582;2023-11-21T06:39:53;15.10;63.50
71237;DHT22;58984;51.960;5.582;2023-11-21T06:42:19;15.20;63.60
71237;DHT22;58984;51.960;5.582;2023-11-21T06:44:46;15.10;63.50
71237;DHT22;58984;51.960;5.582;2023-11-21T06:47:11;15.10;63.50
71237;DHT22;58984;51.960;5.582;2023-11-21T06:49:37;15.20;63.60
71237;DHT22;58984;51.960;5.582;2023-11-21T06:52:04;15.20;64.50
71237;DHT22;58984;51.960;5.582;2023-11-21T06:54:31;15.20;63.70
71237;DHT22;58984;51.960;5.582;2023-11-21T06:56:57;15.20;63.70
71237;DHT22;58984;51.960;5.582;2023-11-21T06:59:22;15.10;63.60
71237;DHT22;58984;51.960;5.582;2023-11-21T07:01:49;15.20;63.80
71237;DHT22;58984;51.960;5.582;2023-11-21T07:04:15;15.10;63.70
71237;DHT22;58984;51.960;5.582;2023-11-21T07:06:40;15.10;63.70
71237;DHT22;58984;51.960;5.582;2023-11-21T07:09:06;15.10;63.70
71237;DHT22;58984;51.960;5.582;2023-11-21T07:11:34;15.10;63.80
71237;DHT22;58984;51.960;5.582;2023-11-21T07:14:00;15.20;64.00
71237;DHT22;58984;51.960;5.582;2023-11-21T07:16:30;15.10;63.90
71237;DHT22;58984;51.960;5.582;2023-11-21T07:18:59;15.10;63.90
71237;DHT22;58984;51.960;5.582;2023-11-21T07:21:25;15.10;63.90
71237;DHT22;58984;51.960;5.582;2023-11-21T07:23:50;15.10;64.00
71237;DHT22;58984;51.960;5.582;2023-11-21T07:26:16;15.10;64.00
71237;DHT22;58984;51.960;5.582;2023-11-21T07:28:42;15.10;64.00
71237;DHT22;58984;51.960;5.582;2023-11-21T07:31:07;15.10;64.00
71237;DHT22;58984;51.960;5.582;2023-11-21T07:33:33;15.10;64.00
71237;DHT22;58984;51.960;5.582;2023-11-21T07:35:58;15.10;64.00
71237;DHT22;58984;51.960;5.582;2023-11-21T07:38:24;15.10;64.00
71237;DHT22;58984;51.960;5.582;2023-11-21T07:40:50;15.10;64.00
71237;DHT22;58984;51.960;5.582;2023-11-21T07:43:15;15.10;64.00
71237;DHT22;58984;51.960;5.582;2023-11-21T07:45:41;15.10;64.00
71237;DHT22;58984;51.960;5.582;2023-11-21T07:48:07;15.10;64.00
71237;DHT22;58984;51.960;5.582;2023-11-21T07:50:32;15.10;64.00
71237;DHT22;58984;51.960;5.582;2023-11-21T07:52:58;15.10;64.00
71237;DHT22;58984;51.960;5.582;2023-11-21T07:55:24;15.10;64.00
71237;DHT22;58984;51.960;5.582;2023-11-21T07:57:50;15.10;64.10
71237;DHT22;58984;51.960;5.582;2023-11-21T08:00:16;15.10;64.00
71237;DHT22;58984;51.960;5.582;2023-11-21T08:02:47;15.10;64.80
71237;DHT22;58984;51.960;5.582;2023-11-21T08:05:12;15.20;64.10
71237;DHT22;58984;51.960;5.582;2023-11-21T08:07:38;15.10;64.00
71237;DHT22;58984;51.960;5.582;2023-11-21T08:10:04;15.10;64.00
71237;DHT22;58984;51.960;5.582;2023-11-21T08:12:30;15.10;64.00
71237;DHT22;58984;51.960;5.582;2023-11-21T08:14:56;15.10;64.00
71237;DHT22;58984;51.960;5.582;2023-11-21T08:17:22;15.10;64.10
71237;DHT22;58984;51.960;5.582;2023-11-21T08:19:48;15.10;64.00
71237;DHT22;58984;51.960;5.582;2023-11-21T08:22:18;15.10;64.00
71237;DHT22;58984;51.960;5.582;2023-11-21T08:24:44;15.10;64.10
71237;DHT22;58984;51.960;5.582;2023-11-21T08:27:12;15.10;64.10
71237;DHT22;58984;51.960;5.582;2023-11-21T08:29:41;15.20;64.10
71237;DHT22;58984;51.960;5.582;2023-11-21T08:32:07;15.20;64.90
71237;DHT22;58984;51.960;5.582;2023-11-21T08:34:33;15.10;64.10
71237;DHT22;58984;51.960;5.582;2023-11-21T08:36:58;15.10;64.10
71237;DHT22;58984;51.960;5.582;2023-11-21T08:39:24;15.10;64.10
71237;DHT22;58984;51.960;5.582;2023-11-21T08:41:56;15.10;64.10
71237;DHT22;58984;51.960;5.582;2023-11-21T08:44:22;15.10;64.30
71237;DHT22;58984;51.960;5.582;2023-11-21T08:46:51;15.20;64.20
71237;DHT22;58984;51.960;5.582;2023-11-21T08:49:17;15.20;64.20
71237;DHT22;58984;51.960;5.582;2023-11-21T08:51:44;15.20;64.20
71237;DHT22;58984;51.960;5.582;2023-11-21T08:54:11;15.20;64.30
71237;DHT22;58984;51.960;5.582;2023-11-21T08:56:37;15.10;64.10
71237;DHT22;58984;51.960;5.582;2023-11-21T08:59:03;15.20;64.40
71237;DHT22;58984;51.960;5.582;2023-11-21T09:01:31;15.20;64.40
71237;DHT22;58984;51.960;5.582;2023-11-21T09:03:58;15.20;64.50
71237;DHT22;58984;51.960;5.582;2023-11-21T09:06:24;15.20;64.20
71237;DHT22;58984;51.960;5.582;2023-11-21T09:08:50;15.20;64.50
71237;DHT22;58984;51.960;5.582;2023-11-21T09:11:16;15.20;64.40
71237;DHT22;58984;51.960;5.582;2023-11-21T09:13:45;15.20;64.40
71237;DHT22;58984;51.960;5.582;2023-11-21T09:16:14;15.20;64.40
71237;DHT22;58984;51.960;5.582;2023-11-21T09:18:41;15.20;64.50
71237;DHT22;58984;51.960;5.582;2023-11-21T09:21:07;15.20;64.30
71237;DHT22;58984;51.960;5.582;2023-11-21T09:23:34;15.20;64.30
71237;DHT22;58984;51.960;5.582;2023-11-21T09:25:59;15.20;64.50
71237;DHT22;58984;51.960;5.582;2023-11-21T09:28:26;15.20;64.40
71237;DHT22;58984;51.960;5.582;2023-11-21T09:30:53;15.20;66.00
71237;DHT22;58984;51.960;5.582;2023-11-21T09:33:19;15.30;66.80
71237;DHT22;58984;51.960;5.582;2023-11-21T09:35:47;15.20;66.30
71237;DHT22;58984;51.960;5.582;2023-11-21T09:38:13;15.20;65.90
71237;DHT22;58984;51.960;5.582;2023-11-21T09:40:38;15.20;65.60
71237;DHT22;58984;51.960;5.582;2023-11-21T09:43:07;15.20;66.20
71237;DHT22;58984;51.960;5.582;2023-11-21T09:45:38;15.20;65.20
71237;DHT22;58984;51.960;5.582;2023-11-21T09:48:04;15.20;65.20
71237;DHT22;58984;51.960;5.582;2023-11-21T09:50:32;15.30;65.20
71237;DHT22;58984;51.960;5.582;2023-11-21T09:55:27;15.20;65.10
71237;DHT22;58984;51.960;5.582;2023-11-21T09:58:02;15.30;65.20
71237;DHT22;58984;51.960;5.582;2023-11-21T10:00:29;15.30;66.00
71237;DHT22;58984;51.960;5.582;2023-11-21T10:03:00;15.30;65.20
71237;DHT22;58984;51.960;5.582;2023-11-21T10:05:28;15.30;65.20
71237;DHT22;58984;51.960;5.582;2023-11-21T10:07:57;15.30;65.10
71237;DHT22;58984;51.960;5.582;2023-11-21T10:10:24;15.30;65.10
71237;DHT22;58984;51.960;5.582;2023-11-21T10:12:52;15.40;65.20
71237;DHT22;58984;51.960;5.582;2023-11-21T10:15:27;15.40;65.20
71237;DHT22;58984;51.960;5.582;2023-11-21T10:17:55;15.30;65.10
71237;DHT22;58984;51.960;5.582;2023-11-21T10:20:47;15.40;65.30
71237;DHT22;58984;51.960;5.582;2023-11-21T10:23:22;15.40;64.80
71237;DHT22;58984;51.960;5.582;2023-11-21T10:26:13;15.40;65.00
71237;DHT22;58984;51.960;5.582;2023-11-21T10:29:01;15.40;65.20
71237;DHT22;58984;51.960;5.582;2023-11-21T10:31:51;15.40;65.20
71237;DHT22;58984;51.960;5.582;2023-11-21T10:34:29;15.40;65.20
71237;DHT22;58984;51.960;5.582;2023-11-21T10:36:55;15.50;65.30
71237;DHT22;58984;51.960;5.582;2023-11-21T10:39:26;15.40;65.20
71237;DHT22;58984;51.960;5.582;2023-11-21T10:41:56;15.40;65.50
71237;DHT22;58984;51.960;5.582;2023-11-21T10:44:22;15.40;65.40
71237;DHT22;58984;51.960;5.582;2023-11-21T10:46:53;15.40;65.70
71237;DHT22;58984;51.960;5.582;2023-11-21T10:49:38;15.40;65.90
71237;DHT22;58984;51.960;5.582;2023-11-21T10:52:09;15.40;65.90
71237;DHT22;58984;51.960;5.582;2023-11-21T10:54:47;15.50;65.70
71237;DHT22;58984;51.960;5.582;2023-11-21T10:57:20;15.50;65.80
71237;DHT22;58984;51.960;5.582;2023-11-21T11:00:01;15.50;66.20
71237;DHT22;58984;51.960;5.582;2023-11-21T11:02:36;15.50;65.90
71237;DHT22;58984;51.960;5.582;2023-11-21T11:05:05;15.50;65.90
71237;DHT22;58984;51.960;5.582;2023-11-21T11:08:13;15.60;66.20
71237;DHT22;58984;51.960;5.582;2023-11-21T11:14:36;15.50;66.20
71237;DHT22;58984;51.960;5.582;2023-11-21T11:33:59;15.60;66.50
71237;DHT22;58984;51.960;5.582;2023-11-21T11:37:18;15.50;66.50
71237;DHT22;58984;51.960;5.582;2023-11-21T11:39:58;15.50;66.40
71237;DHT22;58984;51.960;5.582;2023-11-21T11:42:35;15.50;66.40
71237;DHT22;58984;51.960;5.582;2023-11-21T11:45:22;15.60;66.70
71237;DHT22;58984;51.960;5.582;2023-11-21T11:54:51;15.60;66.50
71237;DHT22;58984;51.960;5.582;2023-11-21T11:57:30;15.50;66.40
71237;DHT22;58984;51.960;5.582;2023-11-21T12:03:24;15.50;66.60
71237;DHT22;58984;51.960;5.582;2023-11-21T12:05:58;15.50;66.70
71237;DHT22;58984;51.960;5.582;2023-11-21T12:08:32;15.60;66.50
71237;DHT22;58984;51.960;5.582;2023-11-21T12:10:58;15.60;66.40
71237;DHT22;58984;51.960;5.582;2023-11-21T12:20:19;15.60;66.80
71237;DHT22;58984;51.960;5.582;2023-11-21T12:22:47;15.60;66.50
71237;DHT22;58984;51.960;5.582;2023-11-21T12:27:48;15.60;66.90
71237;DHT22;58984;51.960;5.582;2023-11-21T12:30:19;15.60;66.90
71237;DHT22;58984;51.960;5.582;2023-11-21T12:32:48;15.60;66.90
71237;DHT22;58984;51.960;5.582;2023-11-21T12:35:17;15.60;66.90
71237;DHT22;58984;51.960;5.582;2023-11-21T12:37:45;15.60;66.80
71237;DHT22;58984;51.960;5.582;2023-11-21T12:40:12;15.70;66.90
71237;DHT22;58984;51.960;5.582;2023-11-21T12:42:45;15.60;66.80
71237;DHT22;58984;51.960;5.582;2023-11-21T12:47:43;15.60;66.90
71237;DHT22;58984;51.960;5.582;2023-11-21T12:50:10;15.60;66.90
71237;DHT22;58984;51.960;5.582;2023-11-21T12:52:46;15.70;67.00
71237;DHT22;58984;51.960;5.582;2023-11-21T12:55:20;15.70;66.90
71237;DHT22;58984;51.960;5.582;2023-11-21T12:57:54;15.70;66.90
71237;DHT22;58984;51.960;5.582;2023-11-21T13:00:27;15.70;66.80
71237;DHT22;58984;51.960;5.582;2023-11-21T13:02:54;15.70;66.90
71237;DHT22;58984;51.960;5.582;2023-11-21T13:05:50;15.70;66.80
71237;DHT22;58984;51.960;5.582;2023-11-21T13:08:16;15.70;67.00
71237;DHT22;58984;51.960;5.582;2023-11-21T13:10:45;15.70;66.70
71237;DHT22;58984;51.960;5.582;2023-11-21T13:13:28;15.70;66.80
71237;DHT22;58984;51.960;5.582;2023-11-21T13:16:03;15.70;66.80
71237;DHT22;58984;51.960;5.582;2023-11-21T13:18:30;15.70;66.80
71237;DHT22;58984;51.960;5.582;2023-11-21T13:20:58;15.70;66.80
71237;DHT22;58984;51.960;5.582;2023-11-21T13:23:24;15.70;66.80
71237;DHT22;58984;51.960;5.582;2023-11-21T13:25:52;15.70;66.80
71237;DHT22;58984;51.960;5.582;2023-11-21T13:28:18;15.70;66.80
71237;DHT22;58984;51.960;5.582;2023-11-21T13:30:46;15.70;66.80
71237;DHT22;58984;51.960;5.582;2023-11-21T13:33:13;15.70;66.80
71237;DHT22;58984;51.960;5.582;2023-11-21T13:35:43;15.70;66.80
71237;DHT22;58984;51.960;5.582;2023-11-21T13:38:16;15.70;66.80
71237;DHT22;58984;51.960;5.582;2023-11-21T13:40:50;15.70;66.70
71237;DHT22;58984;51.960;5.582;2023-11-21T13:43:19;15.70;66.80
71237;DHT22;58984;51.960;5.582;2023-11-21T13:45:47;15.70;66.80
71237;DHT22;58984;51.960;5.582;2023-11-21T13:48:15;15.70;66.80
71237;DHT22;58984;51.960;5.582;2023-11-21T13:50:45;15.70;66.80
71237;DHT22;58984;51.960;5.582;2023-11-21T13:53:20;15.80;66.90
71237;DHT22;58984;51.960;5.582;2023-11-21T13:55:53;15.70;66.70
71237;DHT22;58984;51.960;5.582;2023-11-21T13:58:25;15.70;66.70
71237;DHT22;58984;51.960;5.582;2023-11-21T14:01:07;15.70;66.70
71237;DHT22;58984;51.960;5.582;2023-11-21T14:03:50;15.80;66.80
71237;DHT22;58984;51.960;5.582;2023-11-21T14:06:22;15.80;66.70
71237;DHT22;58984;51.960;5.582;2023-11-21T14:08:53;15.80;66.70
71237;DHT22;58984;51.960;5.582;2023-11-21T14:11:22;15.80;66.70
71237;DHT22;58984;51.960;5.582;2023-11-21T14:13:47;15.80;66.70
71237;DHT22;58984;51.960;5.582;2023-11-21T14:16:14;15.70;66.60
71237;DHT22;58984;51.960;5.582;2023-11-21T14:18:42;15.80;66.80
71237;DHT22;58984;51.960;5.582;2023-11-21T14:21:18;15.80;66.80
71237;DHT22;58984;51.960;5.582;2023-11-21T14:23:44;15.80;66.70
71237;DHT22;58984;51.960;5.582;2023-11-21T14:26:11;15.80;66.80
71237;DHT22;58984;51.960;5.582;2023-11-21T14:28:39;15.80;66.80
71237;DHT22;58984;51.960;5.582;2023-11-21T14:31:05;15.80;66.70
71237;DHT22;58984;51.960;5.582;2023-11-21T14:33:30;15.80;67.60
71237;DHT22;58984;51.960;5.582;2023-11-21T14:35:56;15.70;66.70
71237;DHT22;58984;51.960;5.582;2023-11-21T14:38:23;15.80;66.90
71237;DHT22;58984;51.960;5.582;2023-11-21T14:40:48;15.80;67.00
71237;DHT22;58984;51.960;5.582;2023-11-21T14:43:15;15.80;66.90
71237;DHT22;58984;51.960;5.582;2023-11-21T14:45:41;15.80;66.80
71237;DHT22;58984;51.960;5.582;2023-11-21T14:48:06;15.80;66.80
71237;DHT22;58984;51.960;5.582;2023-11-21T14:50:43;15.80;66.80
71237;DHT22;58984;51.960;5.582;2023-11-21T14:53:10;15.70;66.60
71237;DHT22;58984;51.960;5.582;2023-11-21T14:55:42;15.80;66.80
71237;DHT22;58984;51.960;5.582;2023-11-21T14:58:20;15.80;66.70
71237;DHT22;58984;51.960;5.582;2023-11-21T15:00:58;15.80;66.70
71237;DHT22;58984;51.960;5.582;2023-11-21T15:03:26;15.80;66.70
71237;DHT22;58984;51.960;5.582;2023-11-21T15:06:02;15.80;66.70
71237;DHT22;58984;51.960;5.582;2023-11-21T15:08:51;15.80;66.70
71237;DHT22;58984;51.960;5.582;2023-11-21T15:11:22;15.80;66.60
71237;DHT22;58984;51.960;5.582;2023-11-21T15:13:55;15.80;66.50
71237;DHT22;58984;51.960;5.582;2023-11-21T15:16:20;15.80;66.50
71237;DHT22;58984;51.960;5.582;2023-11-21T15:18:46;15.80;66.50
71237;DHT22;58984;51.960;5.582;2023-11-21T15:21:12;15.80;66.40
71237;DHT22;58984;51.960;5.582;2023-11-21T15:23:38;15.80;66.40
71237;DHT22;58984;51.960;5.582;2023-11-21T15:26:07;15.80;66.30
71237;DHT22;58984;51.960;5.582;2023-11-21T15:28:34;15.70;66.20
71237;DHT22;58984;51.960;5.582;2023-11-21T15:31:03;15.70;66.20
71237;DHT22;58984;51.960;5.582;2023-11-21T15:33:33;15.70;66.10
71237;DHT22;58984;51.960;5.582;2023-11-21T15:36:01;15.70;66.10
71237;DHT22;58984;51.960;5.582;2023-11-21T15:38:33;15.70;66.00
71237;DHT22;58984;51.960;5.582;2023-11-21T15:40:58;15.70;65.90
71237;DHT22;58984;51.960;5.582;2023-11-21T15:43:24;15.70;65.70
71237;DHT22;58984;51.960;5.582;2023-11-21T15:45:50;15.70;65.70
71237;DHT22;58984;51.960;5.582;2023-11-21T15:48:15;15.70;65.70
71237;DHT22;58984;51.960;5.582;2023-11-21T15:50:42;15.70;65.60
71237;DHT22;58984;51.960;5.582;2023-11-21T15:53:08;15.70;65.50
71237;DHT22;58984;51.960;5.582;2023-11-21T15:55:33;15.70;65.40
71237;DHT22;58984;51.960;5.582;2023-11-21T15:58:07;15.70;65.30
71237;DHT22;58984;51.960;5.582;2023-11-21T16:00:52;15.70;65.20
71237;DHT22;58984;51.960;5.582;2023-11-21T16:03:18;15.70;65.00
71237;DHT22;58984;51.960;5.582;2023-11-21T16:05:44;15.70;64.90
71237;DHT22;58984;51.960;5.582;2023-11-21T16:08:09;15.60;64.80
71237;DHT22;58984;51.960;5.582;2023-11-21T16:10:36;15.60;64.70
71237;DHT22;58984;51.960;5.582;2023-11-21T16:13:02;15.70;64.70
71237;DHT22;58984;51.960;5.582;2023-11-21T16:15:28;15.60;64.50
71237;DHT22;58984;51.960;5.582;2023-11-21T16:17:53;15.60;64.50
71237;DHT22;58984;51.960;5.582;2023-11-21T16:20:19;15.60;64.50
71237;DHT22;58984;51.960;5.582;2023-11-21T16:22:45;15.70;64.70